createdAt,value
2018-07-06T00:01:58.875Z,8.25
2018-07-06T00:04:52.110Z,5.92
2018-07-06T00:07:45.263Z,7.47
2018-07-06T00:10:38.491Z,9.83
2018-07-06T00:13:31.701Z,8.50
2018-07-06T00:16:24.553Z,6.40
2018-07-06T00:19:17.675Z,5.87
2018-07-06T00:22:10.861Z,7.87
2018-07-06T00:25:04.212Z,8.23
2018-07-06T00:27:57.372Z,5.78
2018-07-06T00:30:50.829Z,5.97
2018-07-06T00:33:43.968Z,10.58
2018-07-06T00:36:37.272Z,14.23
2018-07-06T00:39:30.373Z,13.95
2018-07-06T00:42:23.554Z,9.65
2018-07-06T00:45:16.712Z,10.90
2018-07-06T00:48:09.759Z,11.53
2018-07-06T00:51:03.755Z,12.93
2018-07-06T00:53:56.950Z,6.50
2018-07-06T00:56:50.289Z,8.60
2018-07-06T00:59:43.546Z,8.00
2018-07-06T01:02:36.646Z,6.12
2018-07-06T01:05:29.963Z,9.15
2018-07-06T01:08:23.154Z,5.72
2018-07-06T01:11:16.513Z,8.48
2018-07-06T01:14:09.973Z,5.60
2018-07-06T01:17:03.476Z,8.25
2018-07-06T01:19:57.726Z,8.55
2018-07-06T01:22:51.016Z,13.80
2018-07-06T01:25:44.209Z,6.22
2018-07-06T01:28:38.349Z,6.67
2018-07-06T01:31:31.656Z,6.15
2018-07-06T01:34:24.886Z,8.83
2018-07-06T01:37:18.103Z,5.35
2018-07-06T01:40:11.224Z,9.68
2018-07-06T01:43:04.397Z,5.08
2018-07-06T01:45:57.575Z,4.22
2018-07-06T01:48:50.921Z,4.37
2018-07-06T01:51:43.909Z,7.30
2018-07-06T01:54:37.108Z,4.45
2018-07-06T01:57:30.127Z,5.58
2018-07-06T02:00:23.360Z,5.35
2018-07-06T02:03:16.392Z,4.85
2018-07-06T02:06:10.922Z,7.22
2018-07-06T02:09:04.576Z,4.75
2018-07-06T02:11:57.815Z,4.30
2018-07-06T02:14:50.889Z,4.95
2018-07-06T02:17:44.144Z,4.28
2018-07-06T02:20:37.363Z,5.20
2018-07-06T02:23:30.570Z,6.62
2018-07-06T02:26:23.879Z,4.70
2018-07-06T02:29:17.273Z,4.90
2018-07-06T02:32:10.530Z,4.87
2018-07-06T02:35:03.806Z,4.55
2018-07-06T02:37:56.977Z,6.45
2018-07-06T02:40:50.296Z,5.50
2018-07-06T02:43:43.500Z,4.72
2018-07-06T02:46:36.582Z,6.03
2018-07-06T02:49:29.624Z,4.58
2018-07-06T02:52:22.902Z,4.78
2018-07-06T02:55:16.233Z,7.17
2018-07-06T02:58:09.203Z,8.70
2018-07-06T03:00:56.375Z,5.10
2018-07-06T03:03:49.632Z,7.05
2018-07-06T03:06:42.878Z,6.10
2018-07-06T03:09:36.370Z,6.15
2018-07-06T03:12:29.785Z,5.05
2018-07-06T03:15:23.184Z,8.63
2018-07-06T03:18:16.254Z,6.62
2018-07-06T03:21:09.875Z,4.80
2018-07-06T03:24:03.311Z,7.20
2018-07-06T03:26:56.659Z,9.10
2018-07-06T03:29:50.392Z,6.30
2018-07-06T03:32:43.574Z,5.50
2018-07-06T03:35:36.856Z,5.53
2018-07-06T03:38:29.985Z,5.10
2018-07-06T03:41:23.177Z,7.72
2018-07-06T03:44:16.564Z,10.13
2018-07-06T03:47:10.535Z,6.33
2018-07-06T03:50:03.849Z,6.15
2018-07-06T03:52:57.090Z,6.25
2018-07-06T03:55:50.324Z,10.60
2018-07-06T03:58:43.598Z,6.20
2018-07-06T04:01:37.004Z,7.37
2018-07-06T04:04:30.066Z,14.15
2018-07-06T04:07:23.520Z,10.10
2018-07-06T04:10:16.661Z,10.75
2018-07-06T04:13:09.728Z,7.97
2018-07-06T04:16:02.944Z,9.00
2018-07-06T04:19:01.008Z,7.00
2018-07-06T04:21:55.149Z,8.25
2018-07-06T04:24:48.476Z,8.53
2018-07-06T04:27:41.793Z,8.00
2018-07-06T04:30:34.971Z,11.00
2018-07-06T04:33:28.183Z,8.45
2018-07-06T04:36:21.405Z,10.15
2018-07-06T04:39:14.771Z,6.80
2018-07-06T04:42:07.880Z,11.12
2018-07-06T04:45:01.166Z,8.38
2018-07-06T04:47:54.441Z,11.73
2018-07-06T04:50:47.659Z,15.78
2018-07-06T04:53:40.875Z,10.25
2018-07-06T04:56:34.117Z,14.70
2018-07-06T04:59:27.424Z,10.60
2018-07-06T05:02:20.671Z,13.13
2018-07-06T05:05:13.856Z,14.43
2018-07-06T05:08:07.165Z,12.47
2018-07-06T05:11:00.404Z,13.55
2018-07-06T05:13:53.602Z,14.25
2018-07-06T05:16:48.333Z,13.78
2018-07-06T05:19:41.601Z,11.68
2018-07-06T05:22:35.050Z,12.35
2018-07-06T05:25:28.599Z,12.65
2018-07-06T05:28:21.691Z,13.70
2018-07-06T05:31:14.869Z,12.43
2018-07-06T05:34:08.894Z,13.15
2018-07-06T05:37:02.224Z,12.75
2018-07-06T05:39:55.582Z,13.15
2018-07-06T05:42:49.612Z,13.35
2018-07-06T05:45:43.905Z,11.60
2018-07-06T05:48:37.301Z,15.55
2018-07-06T05:51:30.465Z,11.80
2018-07-06T05:54:23.877Z,16.23
2018-07-06T05:57:16.964Z,14.58
2018-07-06T06:00:10.357Z,16.07
2018-07-06T06:03:03.666Z,17.02
2018-07-06T06:05:56.913Z,16.75
2018-07-06T06:08:31.686Z,20.88
2018-07-06T06:11:01.760Z,18.27
2018-07-06T06:13:32.194Z,19.32
2018-07-06T06:16:02.677Z,21.95
2018-07-06T06:18:33.073Z,18.80
2018-07-06T06:21:03.594Z,22.67
2018-07-06T06:23:34.021Z,21.73
2018-07-06T06:26:04.558Z,21.97
2018-07-06T06:28:34.974Z,22.52
2018-07-06T06:31:05.403Z,22.98
2018-07-06T06:33:35.896Z,24.77
2018-07-06T06:36:07.318Z,27.17
2018-07-06T06:38:37.795Z,25.55
2018-07-06T06:41:08.288Z,36.40
2018-07-06T06:43:38.647Z,26.17
2018-07-06T06:46:09.089Z,24.70
2018-07-06T06:48:40.693Z,27.85
2018-07-06T06:51:11.496Z,27.20
2018-07-06T06:53:42.006Z,27.52
2018-07-06T06:56:12.447Z,35.48
2018-07-06T06:58:42.993Z,29.23
2018-07-06T07:01:13.492Z,30.75
2018-07-06T07:03:43.988Z,32.58
2018-07-06T07:06:14.427Z,31.70
2018-07-06T07:08:44.754Z,36.40
2018-07-06T07:11:15.096Z,36.58
2018-07-06T07:13:45.683Z,32.15
2018-07-06T07:16:17.018Z,30.92
2018-07-06T07:18:47.414Z,32.05
2018-07-06T07:21:18.021Z,32.15
2018-07-06T07:23:48.560Z,30.55
2018-07-06T07:26:19.037Z,29.27
2018-07-06T07:28:49.592Z,28.98
2018-07-06T07:31:19.798Z,28.70
2018-07-06T07:33:50.109Z,33.58
2018-07-06T07:36:20.609Z,31.60
2018-07-06T07:38:51.145Z,30.55
2018-07-06T07:41:21.577Z,30.27
2018-07-06T07:43:54.425Z,30.95
2018-07-06T07:46:25.104Z,28.38
2018-07-06T07:48:56.216Z,34.53
2018-07-06T07:52:10.093Z,33.65
2018-07-06T07:54:44.317Z,38.85
2018-07-06T07:57:14.768Z,34.95
2018-07-06T07:59:45.494Z,36.25
2018-07-06T08:02:16.136Z,35.35
2018-07-06T08:04:47.543Z,34.95
2018-07-06T08:07:18.759Z,38.92
2018-07-06T08:09:49.574Z,36.45
2018-07-06T08:12:21.031Z,35.48
2018-07-06T08:14:51.537Z,48.28
2018-07-06T08:17:22.127Z,36.03
2018-07-06T08:19:52.583Z,36.15
2018-07-06T08:22:23.074Z,37.10
2018-07-06T08:24:53.491Z,41.45
2018-07-06T08:27:24.024Z,37.67
2018-07-06T08:29:54.393Z,38.83
2018-07-06T08:32:24.876Z,43.30
2018-07-06T08:35:12.361Z,35.40
2018-07-06T08:38:04.881Z,39.03
2018-07-06T08:40:35.508Z,41.77
2018-07-06T08:43:06.727Z,45.65
2018-07-06T08:45:37.145Z,45.55
2018-07-06T08:48:07.553Z,44.08
2018-07-06T08:50:37.704Z,44.42
2018-07-06T08:53:08.003Z,43.40
2018-07-06T08:55:38.441Z,41.92
2018-07-06T08:58:08.878Z,44.08
2018-07-06T09:00:39.343Z,41.60
2018-07-06T09:03:09.719Z,42.67
2018-07-06T09:05:40.174Z,40.88
2018-07-06T09:08:10.657Z,40.43
2018-07-06T09:10:41.114Z,39.73
2018-07-06T09:13:11.543Z,42.50
2018-07-06T09:15:41.925Z,51.75
2018-07-06T09:18:12.386Z,42.73
2018-07-06T09:20:42.504Z,41.55
2018-07-06T09:23:12.769Z,40.10
2018-07-06T09:25:43.626Z,41.30
2018-07-06T09:28:13.705Z,40.92
2018-07-06T09:30:44.723Z,37.93
2018-07-06T09:33:15.873Z,38.53
2018-07-06T09:35:46.339Z,33.60
2018-07-06T09:38:16.830Z,37.28
2018-07-06T09:40:47.272Z,37.23
2018-07-06T09:43:17.711Z,35.95
2018-07-06T09:45:49.195Z,36.98
2018-07-06T09:48:19.617Z,34.10
2018-07-06T09:50:50.050Z,35.43
2018-07-06T09:53:20.541Z,32.53
2018-07-06T09:55:50.953Z,32.90
2018-07-06T09:58:21.438Z,29.50
2018-07-06T10:00:57.020Z,29.48
2018-07-06T10:03:27.987Z,33.38
2018-07-06T10:05:58.412Z,30.25
2018-07-06T10:08:28.808Z,30.08
2018-07-06T10:10:59.397Z,28.23
2018-07-06T10:13:30.017Z,26.87
2018-07-06T10:16:00.517Z,27.75
2018-07-06T10:18:31.091Z,31.52
2018-07-06T10:21:01.557Z,26.45
2018-07-06T10:23:31.973Z,25.60
2018-07-06T10:26:02.450Z,25.43
2018-07-06T10:33:01.919Z,23.12
2018-07-06T10:35:32.243Z,23.85
2018-07-06T10:38:02.751Z,23.57
2018-07-06T10:40:33.218Z,24.05
2018-07-06T10:43:05.420Z,23.85
2018-07-06T10:45:35.852Z,27.90
2018-07-06T10:48:06.377Z,26.77
2018-07-06T10:50:36.807Z,24.72
2018-07-06T10:53:15.167Z,24.23
2018-07-06T10:55:51.156Z,25.68
2018-07-06T10:58:22.475Z,27.80
2018-07-06T11:00:55.149Z,24.32
2018-07-06T11:03:26.301Z,24.85
2018-07-06T11:05:56.863Z,24.05
2018-07-06T11:08:27.340Z,22.32
2018-07-06T11:10:58.003Z,23.38
2018-07-06T11:13:28.536Z,25.25
2018-07-06T11:15:58.962Z,24.90
2018-07-06T11:18:29.733Z,25.97
2018-07-06T11:21:01.242Z,23.90
2018-07-06T11:23:31.726Z,22.75
2018-07-06T11:26:02.900Z,27.07
2018-07-06T11:28:33.525Z,24.07
2018-07-06T11:31:03.959Z,20.32
2018-07-06T11:33:34.725Z,20.82
2018-07-06T11:36:05.192Z,25.23
2018-07-06T11:38:35.907Z,22.05
2018-07-06T11:41:06.522Z,19.37
2018-07-06T11:43:37.038Z,19.15
2018-07-06T11:46:07.345Z,18.95
2018-07-06T11:48:37.673Z,20.50
2018-07-06T11:51:08.337Z,18.85
2018-07-06T11:53:38.843Z,18.12
2018-07-06T11:56:09.418Z,18.32
2018-07-06T11:58:40.536Z,22.32
2018-07-06T12:01:11.401Z,29.10
2018-07-06T12:03:42.093Z,39.27
2018-07-06T12:06:13.361Z,12.98
2018-07-06T12:08:44.185Z,14.83
2018-07-06T12:11:15.740Z,6.72
2018-07-06T12:13:46.356Z,8.45
2018-07-06T12:16:16.978Z,17.55
2018-07-06T12:18:47.491Z,12.68
2018-07-06T12:21:18.902Z,11.43
2018-07-06T12:23:49.818Z,12.53
2018-07-06T12:26:20.512Z,13.30
2018-07-06T12:28:51.362Z,13.95
2018-07-06T12:31:22.442Z,12.28
2018-07-06T12:33:53.169Z,10.55
2018-07-06T12:36:24.449Z,14.23
2018-07-06T12:38:55.279Z,14.60
2018-07-06T12:41:25.838Z,15.58
2018-07-06T12:43:56.491Z,14.23
2018-07-06T12:46:27.135Z,12.93
2018-07-06T12:48:57.827Z,15.93
2018-07-06T12:51:28.672Z,13.45
2018-07-06T12:53:59.197Z,13.98
2018-07-06T12:56:30.100Z,18.27
2018-07-06T12:59:00.929Z,21.27
2018-07-06T13:01:31.357Z,17.80
2018-07-06T13:04:01.788Z,16.97
2018-07-06T13:06:32.288Z,16.48
2018-07-06T13:09:02.751Z,15.30
2018-07-06T13:11:33.402Z,15.10
2018-07-06T13:14:03.901Z,14.35
2018-07-06T13:16:34.313Z,14.87
2018-07-06T13:19:04.776Z,14.73
2018-07-06T13:21:35.556Z,16.07
2018-07-06T13:24:06.322Z,14.07
2018-07-06T13:26:36.765Z,15.95
2018-07-06T13:29:07.220Z,12.60
2018-07-06T13:31:37.755Z,14.43
2018-07-06T13:34:08.262Z,12.78
2018-07-06T13:36:38.720Z,16.40
2018-07-06T13:39:09.408Z,15.75
2018-07-06T13:41:42.173Z,16.25
2018-07-06T13:44:12.654Z,16.30
2018-07-06T13:46:43.241Z,15.03
2018-07-06T13:49:13.718Z,17.35
2018-07-06T13:51:45.416Z,16.62
2018-07-06T13:54:16.887Z,17.17
2018-07-06T13:56:47.353Z,14.95
2018-07-06T13:59:17.956Z,12.28
2018-07-06T14:01:48.585Z,11.57
2018-07-06T14:04:19.113Z,11.03
2018-07-06T14:06:49.657Z,9.85
2018-07-06T14:09:21.541Z,8.58
2018-07-06T14:11:52.748Z,8.98
2018-07-06T14:14:23.546Z,9.00
2018-07-06T14:16:54.231Z,7.80
2018-07-06T14:19:24.800Z,5.75
2018-07-06T14:21:55.515Z,6.55
2018-07-06T14:24:26.521Z,6.12
2018-07-06T14:26:57.006Z,3.30
2018-07-06T14:29:28.153Z,4.10
2018-07-06T14:32:00.045Z,4.40
2018-07-06T14:34:35.147Z,4.40
2018-07-06T14:37:07.484Z,4.78
2018-07-06T14:39:40.522Z,4.60
2018-07-06T14:42:11.981Z,4.17
2018-07-06T14:44:43.264Z,4.80
2018-07-06T14:47:14.356Z,5.95
2018-07-06T14:49:45.700Z,4.12
2018-07-06T14:52:16.530Z,4.75
2018-07-06T14:54:47.922Z,4.00
2018-07-06T14:57:18.360Z,3.90
2018-07-06T14:59:49.400Z,3.80
2018-07-06T15:02:20.696Z,4.75
2018-07-06T15:04:52.115Z,4.20
2018-07-06T15:07:22.864Z,5.17
2018-07-06T15:09:53.293Z,4.55
2018-07-06T15:12:24.158Z,4.67
2018-07-06T15:14:55.345Z,6.03
2018-07-06T15:17:27.277Z,4.30
2018-07-06T15:19:58.422Z,4.00
2018-07-06T15:22:29.022Z,4.10
2018-07-06T15:25:02.029Z,3.80
2018-07-06T15:27:32.994Z,4.30
2018-07-06T15:30:05.029Z,3.85
2018-07-06T15:32:36.200Z,4.87
2018-07-06T15:35:08.452Z,4.30
2018-07-06T15:37:39.052Z,4.45
2018-07-06T15:40:11.578Z,4.78
2018-07-06T15:42:42.962Z,4.45
2018-07-06T15:45:13.520Z,4.42
2018-07-06T15:47:44.049Z,5.08
2018-07-06T15:50:14.492Z,4.65
2018-07-06T15:52:46.026Z,10.30
2018-07-06T15:55:16.403Z,4.28
2018-07-06T15:57:46.885Z,3.90
2018-07-06T16:00:17.206Z,4.47
2018-07-06T16:02:47.668Z,4.92
2018-07-06T16:05:18.055Z,4.17
2018-07-06T16:07:48.503Z,4.45
2018-07-06T16:10:19.025Z,4.10
2018-07-06T16:12:49.121Z,4.03
2018-07-06T16:15:19.445Z,5.33
2018-07-06T16:17:49.763Z,5.50
2018-07-06T16:20:21.168Z,5.60
2018-07-06T16:22:51.550Z,3.67
2018-07-06T16:25:21.949Z,3.60
2018-07-06T16:27:52.478Z,4.37
2018-07-06T16:30:22.875Z,3.72
2018-07-06T16:32:53.969Z,3.37
2018-07-06T16:35:24.528Z,4.15
2018-07-06T16:37:55.131Z,4.28
2018-07-06T16:40:26.121Z,3.77
2018-07-06T16:42:56.621Z,8.10
2018-07-06T16:45:27.783Z,4.40
2018-07-06T16:47:59.001Z,4.72
2018-07-06T16:50:29.356Z,4.83
2018-07-06T16:52:59.769Z,5.05
2018-07-06T16:55:30.963Z,8.90
2018-07-06T16:58:01.911Z,3.87
2018-07-06T17:00:32.630Z,4.20
2018-07-06T17:03:03.723Z,4.62
2018-07-06T17:05:34.206Z,4.95
2018-07-06T17:08:04.589Z,5.87
2018-07-06T17:10:35.003Z,7.00
2018-07-06T17:13:05.503Z,5.20
2018-07-06T17:15:35.897Z,5.78
2018-07-06T17:18:06.584Z,3.80
2018-07-06T17:20:36.997Z,3.77
2018-07-06T17:23:07.431Z,4.22
2018-07-06T17:25:37.913Z,3.15
2018-07-06T17:28:08.515Z,3.50
2018-07-06T17:30:38.939Z,3.20
2018-07-06T17:33:09.440Z,3.25
2018-07-06T17:35:39.892Z,3.20
2018-07-06T17:38:10.296Z,3.80
2018-07-06T17:40:40.931Z,2.75
2018-07-06T17:43:11.472Z,5.40
2018-07-06T17:45:44.638Z,3.37
2018-07-06T17:48:15.188Z,4.90
2018-07-06T17:50:45.604Z,4.55
2018-07-06T17:53:16.147Z,3.52
2018-07-06T17:55:46.600Z,6.03
2018-07-06T17:58:16.676Z,4.05
2018-07-06T18:00:47.067Z,3.20
2018-07-06T18:03:17.533Z,4.55
2018-07-06T18:05:47.975Z,3.87
2018-07-06T18:08:18.431Z,3.35
2018-07-06T18:10:48.997Z,3.83
2018-07-06T18:13:19.401Z,4.60
2018-07-06T18:15:49.908Z,4.35
2018-07-06T18:18:20.361Z,3.98
2018-07-06T18:20:51.328Z,4.55
2018-07-06T18:23:21.840Z,3.85
2018-07-06T18:25:52.197Z,3.95
2018-07-06T18:28:22.581Z,5.22
2018-07-06T18:30:52.980Z,4.78
2018-07-06T18:33:23.465Z,8.68
2018-07-06T18:35:53.965Z,7.87
2018-07-06T18:38:24.396Z,5.62
2018-07-06T18:40:54.861Z,6.33
2018-07-06T18:43:25.421Z,6.87
2018-07-06T18:45:55.993Z,6.30
2018-07-06T18:48:26.532Z,5.55
2018-07-06T18:50:57.033Z,6.37
2018-07-06T18:53:27.569Z,12.40
2018-07-06T18:55:58.079Z,7.70
2018-07-06T18:58:29.109Z,8.65
2018-07-06T19:00:59.583Z,8.80
2018-07-06T19:03:30.289Z,9.15
2018-07-06T19:06:00.795Z,10.35
2018-07-06T19:08:43.857Z,9.50
2018-07-06T19:11:14.376Z,9.78
2018-07-06T19:13:44.756Z,10.05
2018-07-06T19:16:15.224Z,10.82
2018-07-06T19:18:46.099Z,11.85
2018-07-06T19:21:16.784Z,9.48
2018-07-06T19:23:47.165Z,8.63
2018-07-06T19:26:17.855Z,9.43
2018-07-06T19:28:48.738Z,8.45
2018-07-06T19:31:19.251Z,10.50
2018-07-06T19:33:49.685Z,7.97
2018-07-06T19:36:20.259Z,9.23
2018-07-06T19:38:51.504Z,10.35
2018-07-06T19:41:22.909Z,9.58
2018-07-06T19:43:53.404Z,9.15
2018-07-06T19:46:24.229Z,10.72
2018-07-06T19:48:55.683Z,9.40
2018-07-06T19:51:26.279Z,9.60
2018-07-06T19:53:56.945Z,10.18
2018-07-06T19:56:27.713Z,9.65
2018-07-06T19:58:59.199Z,8.93
2018-07-06T20:01:29.740Z,14.63
2018-07-06T20:04:00.345Z,12.70
2018-07-06T20:06:30.799Z,9.50
2018-07-06T20:09:01.321Z,8.78
2018-07-06T20:11:33.733Z,8.58
2018-07-06T20:14:04.364Z,11.12
2018-07-06T20:16:35.305Z,9.80
2018-07-06T20:19:05.861Z,9.58
2018-07-06T20:21:36.418Z,10.40
2018-07-06T20:24:06.963Z,12.47
2018-07-06T20:26:38.549Z,11.30
2018-07-06T20:29:09.020Z,10.60
2018-07-06T20:31:39.797Z,10.55
2018-07-06T20:34:10.264Z,10.23
2018-07-06T20:36:40.793Z,11.45
2018-07-06T20:39:11.182Z,11.00
2018-07-06T20:41:41.619Z,11.95
2018-07-06T20:44:12.135Z,9.93
2018-07-06T20:46:43.277Z,10.82
2018-07-06T20:49:13.817Z,12.53
2018-07-06T20:51:44.234Z,11.48
2018-07-06T20:54:14.695Z,10.25
2018-07-06T20:56:45.938Z,9.88
2018-07-06T20:59:16.307Z,13.43
2018-07-06T21:01:46.745Z,13.00
2018-07-06T21:04:17.243Z,10.10
2018-07-06T21:06:47.698Z,14.20
2018-07-06T21:09:18.158Z,10.50
2018-07-06T21:11:49.120Z,11.38
2018-07-06T21:14:19.416Z,10.00
2018-07-06T21:16:49.778Z,9.78
2018-07-06T21:19:20.265Z,13.53
2018-07-06T21:21:50.673Z,11.53
2018-07-06T21:24:21.156Z,11.97
2018-07-06T21:26:51.589Z,12.78
2018-07-06T21:29:22.003Z,9.88
2018-07-06T21:31:52.401Z,11.30
2018-07-06T21:34:22.792Z,11.48
2018-07-06T21:36:53.249Z,11.48
2018-07-06T21:39:23.732Z,12.98
2018-07-06T21:41:54.197Z,14.75
2018-07-06T21:44:24.617Z,13.75
2018-07-06T21:46:55.056Z,13.40
2018-07-06T21:49:25.538Z,10.75
2018-07-06T21:51:56.561Z,11.38
2018-07-06T21:54:27.049Z,14.87
2018-07-06T21:56:57.400Z,10.95
2018-07-06T21:59:27.862Z,15.20
2018-07-06T22:01:58.281Z,12.80
2018-07-06T22:04:28.757Z,11.78
2018-07-06T22:06:59.157Z,15.88
2018-07-06T22:09:29.582Z,13.28
2018-07-06T22:12:00.382Z,11.33
2018-07-06T22:14:30.866Z,11.15
2018-07-06T22:17:01.246Z,16.48
2018-07-06T22:19:31.786Z,15.03
2018-07-06T22:22:02.261Z,13.60
2018-07-06T22:24:32.724Z,14.70
2018-07-06T22:27:03.062Z,14.60
2018-07-06T22:29:33.556Z,11.95
2018-07-06T22:32:04.861Z,12.82
2018-07-06T22:34:35.300Z,12.90
2018-07-06T22:37:05.774Z,11.43
2018-07-06T22:39:36.232Z,12.73
2018-07-06T22:42:06.682Z,16.73
2018-07-06T22:44:37.086Z,17.35
2018-07-06T22:47:08.139Z,12.20
2018-07-06T22:49:38.624Z,17.00
2018-07-06T22:52:09.089Z,13.90
2018-07-06T22:54:39.603Z,13.08
2018-07-06T22:57:10.037Z,14.07
2018-07-06T22:59:40.493Z,17.95
2018-07-06T23:02:10.914Z,15.80
2018-07-06T23:04:41.364Z,14.03
2018-07-06T23:07:11.737Z,19.92
2018-07-06T23:09:42.095Z,14.15
2018-07-06T23:12:12.509Z,15.35
2018-07-06T23:14:43.599Z,17.00
2018-07-06T23:17:14.082Z,16.65
2018-07-06T23:19:44.479Z,15.90
2018-07-06T23:22:25.509Z,18.02
2018-07-06T23:24:56.037Z,18.87
2018-07-06T23:27:26.522Z,18.37
2018-07-06T23:29:56.954Z,16.35
2018-07-06T23:32:27.458Z,16.35
2018-07-06T23:34:58.529Z,17.55
2018-07-06T23:37:29.419Z,16.20
2018-07-06T23:39:59.792Z,15.80
2018-07-06T23:42:30.276Z,16.02
2018-07-06T23:45:00.709Z,17.48
2018-07-06T23:47:31.234Z,15.03
2018-07-06T23:50:02.553Z,16.97
2018-07-06T23:52:33.074Z,16.32
2018-07-06T23:55:03.722Z,17.52
2018-07-06T23:57:34.378Z,22.00
